Time;durP1;ratioP1;P1;durP2;ratioP2;P2;SDS_P1;SDS_P2;PMS_P1;PMS_P2;Temp;Humidity;BMP_temperature;BMP_pressure;BME280_temperature;BME280_humidity;BME280_pressure;Samples;Min_cycle;Max_cycle;Signal;HPM_P1;HPM_P2
2023/06/19 00:01:58;;;;;;;;;4.67;4.67;;;;;22.51;63.42;100617.94;6129792;23;45775;-60
2023/06/19 00:04:24;;;;;;;;;6.33;5.00;;;;;22.44;63.46;100614.47;6130965;23;45148;-61
2023/06/19 00:06:49;;;;;;;;;4.33;4.33;;;;;22.44;63.63;100619.91;6131394;23;44963;-59
2023/06/19 00:09:14;;;;;;;;;7.33;6.00;;;;;22.42;63.61;100623.59;6132100;23;45011;-61
2023/06/19 00:11:40;;;;;;;;;6.00;5.00;;;;;22.40;63.39;100614.59;6131298;23;45554;-64
2023/06/19 00:14:05;;;;;;;;;4.00;4.00;;;;;22.37;63.74;100617.38;6130509;23;44915;-58
2023/06/19 00:16:32;;;;;;;;;7.33;5.00;;;;;22.35;63.80;100611.09;6131665;23;44963;-64
2023/06/19 00:18:57;;;;;;;;;4.50;4.50;;;;;22.35;63.74;100616.53;6132033;23;45007;-62
2023/06/19 00:21:24;;;;;;;;;6.00;3.00;;;;;22.22;63.50;100608.63;6131730;23;49098;-61
2023/06/19 00:23:50;;;;;;;;;4.00;4.00;;;;;22.27;63.87;100625.75;6132006;23;45219;-61
2023/06/19 00:26:16;;;;;;;;;5.00;5.00;;;;;22.29;64.00;100631.19;6131239;23;45013;-61
2023/06/19 00:28:43;;;;;;;;;5.00;5.00;;;;;22.29;63.83;100622.09;6131749;23;44859;-61
2023/06/19 00:31:09;;;;;;;;;3.67;3.67;;;;;22.29;63.78;100628.47;6131540;23;45129;-62
2023/06/19 00:33:34;;;;;;;;;8.67;6.33;;;;;22.27;63.40;100642.09;6131288;23;44905;-59
2023/06/19 00:36:00;;;;;;;;;6.67;6.00;;;;;22.23;63.69;100640.34;6131591;23;44923;-60
2023/06/19 00:38:26;;;;;;;;;7.33;7.33;;;;;22.26;63.54;100653.88;6132555;23;45052;-61
2023/06/19 00:40:51;;;;;;;;;10.00;8.00;;;;;22.16;64.04;100648.69;6131686;23;45792;-60
2023/06/19 00:43:17;;;;;;;;;5.67;5.67;;;;;22.19;63.96;100660.41;6131859;23;44918;-62
2023/06/19 00:45:42;;;;;;;;;6.67;6.67;;;;;22.19;63.88;100671.31;6131043;23;44944;-61
2023/06/19 00:48:08;;;;;;;;;7.67;7.00;;;;;22.20;63.92;100670.34;6132165;23;44891;-59
2023/06/19 00:50:34;;;;;;;;;10.33;7.00;;;;;22.11;63.75;100665.13;6132825;23;45262;-60
2023/06/19 00:53:03;;;;;;;;;6.33;6.33;;;;;22.09;63.97;100673.34;6130869;23;45091;-61
2023/06/19 00:55:29;;;;;;;;;8.00;8.00;;;;;22.03;64.03;100669.84;6132459;23;44953;-59
2023/06/19 00:57:55;;;;;;;;;8.33;6.33;;;;;22.03;64.26;100664.41;6132035;23;45014;-59
2023/06/19 01:00:20;;;;;;;;;9.00;8.00;;;;;22.00;64.04;100664.47;6131415;23;45163;-61
2023/06/19 01:02:47;;;;;;;;;9.67;7.00;;;;;22.02;64.20;100666.22;6130917;23;47346;-60
2023/06/19 01:05:13;;;;;;;;;10.33;8.33;;;;;22.05;64.17;100682.47;6131312;23;44919;-60
2023/06/19 01:08:00;;;;;;;;;10.33;9.33;;;;;22.06;64.31;100677.97;6131393;23;45123;-61
2023/06/19 01:10:35;;;;;;;;;6.33;5.00;;;;;22.06;64.14;100683.41;6131601;23;46053;-61
2023/06/19 01:13:11;;;;;;;;;8.67;7.00;;;;;22.02;64.41;100689.81;6131381;23;45186;-61
2023/06/19 01:15:40;;;;;;;;;8.33;8.00;;;;;22.02;64.47;100681.66;6131502;23;44968;-63
2023/06/19 01:18:06;;;;;;;;;8.00;6.33;;;;;22.04;64.63;100679.78;6131397;23;45157;-64
2023/06/19 01:20:33;;;;;;;;;7.00;7.00;;;;;21.89;64.43;100665.63;6130478;23;45096;-60
2023/06/19 01:23:06;;;;;;;;;9.33;7.67;;;;;22.04;64.41;100693.38;6131636;23;45087;-62
2023/06/19 01:25:32;;;;;;;;;7.00;7.00;;;;;22.04;64.61;100693.38;6132086;23;45200;-60
2023/06/19 01:27:57;;;;;;;;;8.00;5.00;;;;;22.00;64.70;100688.97;6130397;23;45139;-60
2023/06/19 01:30:22;;;;;;;;;8.33;6.00;;;;;22.01;64.83;100688.00;6130483;23;45117;-61
2023/06/19 01:33:09;;;;;;;;;13.33;9.33;;;;;21.94;64.82;100689.09;6131050;23;44963;-63
2023/06/19 01:35:37;;;;;;;;;8.00;8.00;;;;;21.88;65.11;100665.66;6130430;23;44882;-63
2023/06/19 01:38:02;;;;;;;;;8.00;8.00;;;;;21.84;64.72;100662.06;6130761;23;44953;-61
2023/06/19 01:40:31;;;;;;;;;6.67;6.67;;;;;21.88;65.00;100680.13;6129974;23;45045;-60
2023/06/19 01:43:00;;;;;;;;;9.00;8.00;;;;;21.82;64.90;100669.38;6130630;23;44877;-60
2023/06/19 01:45:27;;;;;;;;;8.33;8.33;;;;;21.85;65.05;100682.91;6130750;23;44972;-60
2023/06/19 01:47:53;;;;;;;;;8.67;7.67;;;;;21.79;65.36;100682.16;6130905;23;44982;-63
2023/06/19 01:50:19;;;;;;;;;7.00;7.00;;;;;21.78;65.37;100692.16;6129990;23;45129;-60
2023/06/19 01:52:44;;;;;;;;;8.00;7.00;;;;;21.77;65.34;100694.91;6130445;23;45051;-60
2023/06/19 01:55:10;;;;;;;;;7.33;7.33;;;;;21.72;65.50;100687.72;6130751;23;44903;-60
2023/06/19 01:57:36;;;;;;;;;8.67;6.33;;;;;21.69;65.57;100679.63;6131515;23;44826;-60
2023/06/19 02:00:02;;;;;;;;;7.00;7.00;;;;;21.81;65.53;100694.81;6130999;23;46056;-60
2023/06/19 02:02:27;;;;;;;;;8.33;7.33;;;;;21.86;65.34;100697.41;6131569;23;45041;-60
2023/06/19 02:04:53;;;;;;;;;7.67;7.67;;;;;21.74;65.57;100674.09;6131740;23;44989;-59
2023/06/19 02:07:18;;;;;;;;;9.00;7.33;;;;;21.78;65.60;100689.44;6131720;23;45172;-61
2023/06/19 02:09:45;;;;;;;;;7.33;5.00;;;;;21.83;65.23;100706.53;6130525;23;45902;-60
2023/06/19 02:12:10;;;;;;;;;8.67;8.67;;;;;21.76;65.22;100696.69;6129920;23;53196;-60
2023/06/19 02:14:35;;;;;;;;;7.33;7.33;;;;;21.70;65.46;100685.97;6130951;23;45040;-60
2023/06/19 02:17:01;;;;;;;;;9.00;8.00;;;;;21.68;65.59;100693.28;6131071;23;45096;-62
2023/06/19 02:19:26;;;;;;;;;10.33;9.67;;;;;21.60;65.47;100681.66;6129646;23;45595;-61
2023/06/19 02:21:51;;;;;;;;;9.33;8.67;;;;;21.71;65.44;100693.19;6130731;23;44954;-60
2023/06/19 02:24:17;;;;;;;;;10.33;10.33;;;;;21.66;65.33;100693.31;6132441;23;45111;-60
2023/06/19 02:26:43;;;;;;;;;7.33;7.33;;;;;21.63;65.43;100687.91;6132129;23;44941;-61
2023/06/19 02:29:09;;;;;;;;;10.33;10.33;;;;;21.57;65.57;100695.31;6132208;23;45806;-62
2023/06/19 02:31:34;;;;;;;;;7.67;6.67;;;;;21.53;65.77;100699.88;6131524;23;44916;-62
2023/06/19 02:34:00;;;;;;;;;9.00;7.67;;;;;21.49;66.12;100699.03;6131794;23;45023;-62
2023/06/19 02:36:25;;;;;;;;;6.67;6.67;;;;;21.48;65.57;100694.56;6130322;23;45339;-61
2023/06/19 02:38:51;;;;;;;;;9.00;9.00;;;;;21.48;65.76;100705.44;6131294;23;46926;-64
2023/06/19 02:41:18;;;;;;;;;11.00;10.00;;;;;21.33;66.07;100689.38;6130984;23;45035;-60
2023/06/19 02:43:44;;;;;;;;;10.00;10.00;;;;;21.32;65.94;100690.31;6133441;23;45157;-59
2023/06/19 02:46:10;;;;;;;;;12.33;10.33;;;;;21.39;66.20;100712.84;6132902;23;45043;-60
2023/06/19 02:48:35;;;;;;;;;10.67;10.33;;;;;21.28;66.11;100697.63;6131610;23;50719;-60
2023/06/19 02:51:01;;;;;;;;;14.67;12.00;;;;;21.32;66.34;100706.63;6132084;23;45018;-60
2023/06/19 02:53:26;;;;;;;;;13.00;12.00;;;;;21.26;66.38;100699.47;6131376;23;45545;-61
2023/06/19 02:55:51;;;;;;;;;7.67;6.67;;;;;21.39;66.19;100715.56;6131797;23;45108;-59
2023/06/19 02:58:17;;;;;;;;;12.33;11.33;;;;;21.37;65.94;100701.09;6131955;23;45424;-59
2023/06/19 03:00:43;;;;;;;;;8.67;8.67;;;;;21.32;65.98;100703.91;6130961;23;45230;-64
2023/06/19 03:03:08;;;;;;;;;11.67;10.67;;;;;21.40;66.00;100710.09;6133013;23;44925;-59
2023/06/19 03:05:34;;;;;;;;;11.33;10.67;;;;;21.35;66.00;100712.88;6132888;23;45088;-61
2023/06/19 03:07:59;;;;;;;;;8.00;8.00;;;;;21.35;66.34;100715.59;6132215;23;45341;-62
2023/06/19 03:10:24;;;;;;;;;11.67;9.67;;;;;21.35;66.29;100698.41;6132701;23;45062;-61
2023/06/19 03:12:50;;;;;;;;;15.00;9.33;;;;;21.32;66.46;100701.19;6131664;23;45027;-62
2023/06/19 03:15:15;;;;;;;;;13.33;12.00;;;;;21.38;66.17;100709.19;6131797;23;44896;-60
2023/06/19 03:17:41;;;;;;;;;12.00;9.67;;;;;21.41;66.37;100705.53;6132001;23;46080;-60
2023/06/19 03:20:09;;;;;;;;;12.00;11.33;;;;;21.30;66.26;100700.28;6132230;23;44842;-62
2023/06/19 03:22:34;;;;;;;;;12.33;12.00;;;;;21.29;66.25;100707.56;6132789;23;45039;-61
2023/06/19 03:24:59;;;;;;;;;9.33;9.33;;;;;21.32;66.09;100710.22;6130608;23;45045;-62
2023/06/19 03:27:26;;;;;;;;;9.67;8.00;;;;;21.31;66.32;100718.41;6131062;23;55427;-62
2023/06/19 03:29:52;;;;;;;;;14.33;13.67;;;;;21.22;66.16;100699.53;6126179;23;45219;-62
2023/06/19 03:32:18;;;;;;;;;12.67;12.33;;;;;21.31;66.18;100708.41;6121197;23;45366;-65
2023/06/19 03:34:43;;;;;;;;;13.00;11.67;;;;;21.31;66.68;100718.41;6119940;23;45395;-60
2023/06/19 03:37:09;;;;;;;;;8.33;8.33;;;;;21.29;66.45;100712.09;6119564;23;45337;-66
2023/06/19 03:39:34;;;;;;;;;15.67;10.00;;;;;21.34;65.97;100718.34;6119110;23;45239;-61
2023/06/19 03:42:00;;;;;;;;;12.67;11.00;;;;;21.31;66.29;100711.13;6119455;23;45375;-62
2023/06/19 03:44:25;;;;;;;;;15.67;10.33;;;;;21.35;66.75;100720.16;6120931;23;45262;-64
2023/06/19 03:46:51;;;;;;;;;13.33;11.33;;;;;21.36;66.20;100724.63;6128175;23;52265;-65
2023/06/19 03:49:17;;;;;;;;;17.00;11.33;;;;;21.38;66.09;100725.50;6126385;23;45522;-60
2023/06/19 03:51:42;;;;;;;;;11.00;10.67;;;;;21.40;66.09;100722.75;6118157;23;45402;-63
2023/06/19 03:54:07;;;;;;;;;12.67;9.00;;;;;21.42;65.76;100723.66;6118847;23;45284;-67
2023/06/19 03:56:33;;;;;;;;;14.33;11.67;;;;;21.38;65.78;100709.19;6120153;23;46524;-60
2023/06/19 03:58:58;;;;;;;;;10.00;9.33;;;;;21.45;65.53;100701.81;6119715;23;45345;-63
2023/06/19 04:01:23;;;;;;;;;18.00;12.33;;;;;21.57;65.43;100717.06;6119405;23;45232;-64
2023/06/19 04:03:49;;;;;;;;;11.67;10.67;;;;;21.54;65.31;100708.00;6120693;23;45454;-65
2023/06/19 04:06:14;;;;;;;;;11.33;9.33;;;;;21.65;65.07;100724.13;6120232;23;46008;-63
2023/06/19 04:08:40;;;;;;;;;16.67;12.00;;;;;21.66;65.03;100714.13;6119263;23;45402;-64
2023/06/19 04:11:05;;;;;;;;;16.00;11.00;;;;;21.67;64.62;100711.38;6119402;23;45357;-62
2023/06/19 04:13:30;;;;;;;;;11.67;10.33;;;;;21.37;64.41;100663.06;6120245;23;45367;-63
2023/06/19 04:15:56;;;;;;;;;10.67;10.00;;;;;21.72;64.40;100720.34;6120026;23;45498;-63
2023/06/19 04:18:21;;;;;;;;;10.00;8.33;;;;;21.55;64.33;100698.06;6119842;23;45439;-62
2023/06/19 04:20:47;;;;;;;;;13.00;10.00;;;;;21.75;64.15;100732.09;6119039;23;45462;-65
2023/06/19 04:23:12;;;;;;;;;13.67;9.33;;;;;21.79;64.12;100740.16;6120980;23;45480;-66
2023/06/19 04:25:38;;;;;;;;;9.00;9.00;;;;;21.79;64.09;100741.97;6120499;23;45962;-64
2023/06/19 04:28:03;;;;;;;;;10.67;6.33;;;;;21.78;64.01;100743.81;6118511;23;45384;-61
2023/06/19 04:30:30;;;;;;;;;12.67;11.00;;;;;21.82;64.16;100755.53;6119513;23;45581;-66
2023/06/19 04:32:59;;;;;;;;;10.67;8.33;;;;;21.78;63.82;100757.41;6120100;23;45169;-61
2023/06/19 04:35:24;;;;;;;;;12.00;8.33;;;;;21.76;64.05;100766.50;6121404;23;45315;-62
2023/06/19 04:37:50;;;;;;;;;7.00;6.00;;;;;21.69;64.02;100758.47;6119782;23;45400;-65
2023/06/19 04:40:15;;;;;;;;;12.00;11.00;;;;;21.77;63.85;100760.16;6120480;23;45741;-66
2023/06/19 04:42:41;;;;;;;;;13.00;12.33;;;;;21.72;63.61;100750.25;6119235;23;45352;-69
2023/06/19 04:45:07;;;;;;;;;13.00;13.00;;;;;21.79;63.53;100761.03;6123209;23;45878;-68
2023/06/19 04:47:33;;;;;;;;;8.00;8.00;;;;;21.77;63.52;100757.44;6128011;23;45015;-67
2023/06/19 04:49:59;;;;;;;;;10.00;8.67;;;;;21.83;63.32;100760.94;6131008;23;45347;-66
2023/06/19 04:52:25;;;;;;;;;11.00;9.33;;;;;21.72;63.14;100739.38;6127957;23;45538;-66
2023/06/19 04:54:50;;;;;;;;;14.00;10.67;;;;;21.86;63.43;100768.13;6103897;23;47428;-64
2023/06/19 04:57:16;;;;;;;;;53.50;45.25;;;;;21.95;62.94;100767.94;6125614;23;45861;-68
2023/06/19 04:59:45;;;;;;;;;15.33;13.67;;;;;22.00;62.66;100771.47;6125369;23;45237;-70
2023/06/19 05:02:11;;;;;;;;;15.67;12.00;;;;;22.06;62.41;100775.91;6122192;23;45254;-71
2023/06/19 05:04:36;;;;;;;;;7.00;7.00;;;;;22.09;62.08;100773.09;6119727;23;45370;-68
2023/06/19 05:07:02;;;;;;;;;10.33;8.33;;;;;21.98;62.42;100764.28;6119777;23;45422;-69
2023/06/19 05:09:28;;;;;;;;;11.00;11.00;;;;;21.98;62.03;100754.28;6120070;23;45493;-72
2023/06/19 05:11:54;;;;;;;;;12.00;11.00;;;;;22.08;62.07;100774.94;6114850;23;45332;-74
2023/06/19 05:14:19;;;;;;;;;13.00;11.67;;;;;22.06;62.02;100775.91;6118154;23;45513;-72
2023/06/19 05:16:45;;;;;;;;;10.33;8.00;;;;;22.05;62.08;100780.44;6130311;23;45187;-67
2023/06/19 05:19:10;;;;;;;;;9.33;9.33;;;;;22.05;62.24;100774.97;6129345;23;45027;-78
2023/06/19 05:21:36;;;;;;;;;11.33;11.33;;;;;22.06;62.22;100768.63;6128934;23;45175;-68
2023/06/19 05:24:02;;;;;;;;;14.00;12.00;;;;;22.01;62.25;100764.19;6131996;23;45969;-65
2023/06/19 05:26:28;;;;;;;;;9.67;9.67;;;;;21.88;62.29;100722.78;6133289;23;44919;-76
2023/06/19 05:28:53;;;;;;;;;8.67;8.67;;;;;22.00;62.37;100746.97;6131648;23;44902;-71
2023/06/19 05:31:19;;;;;;;;;10.00;10.00;;;;;22.08;62.08;100742.28;6132152;23;45137;-71
2023/06/19 05:33:45;;;;;;;;;10.67;10.33;;;;;21.97;62.15;100728.00;6131261;23;45630;-72
2023/06/19 05:36:10;;;;;;;;;10.33;9.67;;;;;22.22;61.85;100763.75;6132655;23;44899;-72
2023/06/19 05:38:36;;;;;;;;;17.67;15.33;;;;;22.26;61.38;100759.16;6128788;23;45266;-70
2023/06/19 05:41:02;;;;;;;;;16.33;15.00;;;;;22.25;61.30;100751.91;6122216;23;45496;-71
2023/06/19 05:43:27;;;;;;;;;13.67;12.00;;;;;22.21;61.35;100748.34;6120996;23;46073;-70
2023/06/19 05:45:54;;;;;;;;;11.67;9.67;;;;;22.31;61.33;100740.91;6120730;23;45301;-65
2023/06/19 05:48:19;;;;;;;;;11.67;10.00;;;;;22.18;61.03;100723.03;6119643;23;45276;-74
2023/06/19 05:50:45;;;;;;;;;10.67;10.67;;;;;22.29;60.77;100736.44;6120114;23;45244;-65
2023/06/19 05:53:10;;;;;;;;;16.67;12.33;;;;;22.37;60.56;100750.75;6120593;23;45851;-68
2023/06/19 05:55:36;;;;;;;;;14.00;12.33;;;;;22.42;60.78;100744.28;6120032;23;45197;-67
2023/06/19 05:58:03;;;;;;;;;16.00;12.00;;;;;22.40;60.55;100732.53;6120483;23;45436;-72
2023/06/19 06:00:29;;;;;;;;;12.00;12.00;;;;;22.44;60.54;100744.25;6120192;23;45458;-66
2023/06/19 06:03:02;;;;;;;;;14.67;12.67;;;;;22.43;60.47;100747.91;6123458;23;46049;-60
2023/06/19 06:05:27;;;;;;;;;10.33;9.33;;;;;22.46;60.23;100739.69;6131679;23;45012;-66
2023/06/19 06:07:56;;;;;;;;;12.33;11.67;;;;;22.56;60.22;100735.78;6127465;23;45289;-60
2023/06/19 06:10:23;;;;;;;;;11.00;10.67;;;;;22.63;59.67;100748.31;6129775;23;45129;-63
2023/06/19 06:12:49;;;;;;;;;11.67;9.00;;;;;22.69;59.35;100738.25;6120208;23;45284;-64
2023/06/19 06:15:15;;;;;;;;;9.33;9.33;;;;;22.76;59.10;100751.66;6120810;23;45476;-60
2023/06/19 06:17:40;;;;;;;;;12.00;9.33;;;;;22.82;58.84;100750.63;6120153;23;45254;-62
2023/06/19 06:20:12;;;;;;;;;12.33;12.00;;;;;22.88;58.58;100749.56;6120743;23;45265;-60
2023/06/19 06:22:42;;;;;;;;;12.67;11.00;;;;;22.90;58.25;100755.88;6120626;23;45719;-63
2023/06/19 06:25:10;;;;;;;;;13.67;10.33;;;;;22.84;58.27;100754.22;6117935;23;45368;-63
2023/06/19 06:27:35;;;;;;;;;8.33;5.00;;;;;22.91;58.06;100766.72;6120106;23;45411;-62
2023/06/19 06:30:01;;;;;;;;;10.00;10.00;;;;;22.94;58.16;100763.94;6124447;23;45283;-59
2023/06/19 06:32:28;;;;;;;;;12.67;12.00;;;;;22.96;58.13;100772.97;6120688;23;45355;-62
2023/06/19 06:34:54;;;;;;;;;18.33;12.33;;;;;22.97;58.09;100774.78;6120574;23;45410;-62
2023/06/19 06:37:22;;;;;;;;;11.33;9.67;;;;;22.98;57.69;100772.94;6120356;23;45303;-63
2023/06/19 06:39:51;;;;;;;;;18.00;15.67;;;;;22.98;58.26;100776.56;6119428;23;45559;-61
2023/06/19 06:42:17;;;;;;;;;14.67;13.00;;;;;22.99;59.65;100788.34;6119245;23;46215;-61
2023/06/19 06:44:43;;;;;;;;;14.67;11.67;;;;;22.99;59.83;100791.09;6119890;23;45561;-61
2023/06/19 06:47:08;;;;;;;;;17.00;15.67;;;;;22.99;60.18;100791.09;6119757;23;45498;-61
2023/06/19 06:49:36;;;;;;;;;18.00;15.00;;;;;22.93;60.46;100769.41;6118672;23;45284;-61
2023/06/19 06:52:03;;;;;;;;;18.00;15.67;;;;;22.98;60.05;100790.19;6119698;23;46394;-62
2023/06/19 06:54:28;;;;;;;;;18.67;17.00;;;;;23.02;60.37;100803.75;6119813;23;45394;-62
2023/06/19 06:56:58;;;;;;;;;25.00;19.67;;;;;23.03;60.20;100800.06;6119584;23;45219;-61
2023/06/19 06:59:23;;;;;;;;;19.33;16.67;;;;;23.09;60.32;100806.31;6120106;23;45452;-61
2023/06/19 07:01:49;;;;;;;;;18.67;16.67;;;;;23.13;59.80;100812.56;6120695;23;46212;-60
2023/06/19 07:04:14;;;;;;;;;21.33;19.33;;;;;23.15;59.71;100806.16;6144972;23;45329;-61
2023/06/19 07:06:39;;;;;;;;;20.33;16.33;;;;;23.19;59.32;100817.88;6121533;23;45225;-62
2023/06/19 07:09:05;;;;;;;;;29.00;18.67;;;;;23.18;59.42;100811.53;6121717;23;45347;-61
2023/06/19 07:11:30;;;;;;;;;13.67;13.67;;;;;23.19;59.50;100806.97;6118513;23;46848;-63
2023/06/19 07:13:55;;;;;;;;;21.33;18.33;;;;;23.25;58.95;100809.56;6121388;23;45263;-59
2023/06/19 07:16:21;;;;;;;;;20.67;19.33;;;;;23.23;59.20;100805.06;6121195;23;57063;-60
2023/06/19 07:18:46;;;;;;;;;20.00;20.00;;;;;23.34;58.91;100805.69;6118834;23;45399;-59
2023/06/19 07:21:14;;;;;;;;;29.00;22.50;;;;;23.42;58.77;100806.38;6120718;23;46050;-62
2023/06/19 07:23:44;;;;;;;;;20.67;19.33;;;;;23.44;58.77;100800.88;6121377;23;45200;-61
2023/06/19 07:26:09;;;;;;;;;24.25;22.50;;;;;23.44;58.87;100799.06;6121543;23;45348;-61
2023/06/19 07:28:36;;;;;;;;;23.33;18.33;;;;;23.55;58.29;100806.97;6119504;23;45388;-60
2023/06/19 07:31:02;;;;;;;;;28.00;21.67;;;;;23.49;58.49;100798.94;6121111;23;46407;-62
2023/06/19 07:33:29;;;;;;;;;18.33;18.33;;;;;23.52;58.14;100812.50;6121489;23;45375;-61
2023/06/19 07:35:54;;;;;;;;;19.33;16.33;;;;;23.54;57.90;100799.69;6121897;23;45152;-60
2023/06/19 07:38:20;;;;;;;;;20.00;15.00;;;;;23.60;57.64;100802.28;6120939;23;45503;-59
2023/06/19 07:40:45;;;;;;;;;21.00;19.33;;;;;23.63;57.23;100796.75;6120714;23;45753;-62
2023/06/19 07:43:10;;;;;;;;;20.33;18.00;;;;;23.66;57.53;100798.47;6120689;23;45368;-60
2023/06/19 07:45:36;;;;;;;;;18.00;17.67;;;;;23.69;57.28;100796.59;6121520;23;45462;-59
2023/06/19 07:48:01;;;;;;;;;22.00;19.33;;;;;23.70;57.02;100767.47;6118270;23;45392;-61
2023/06/19 07:50:27;;;;;;;;;22.00;17.67;;;;;23.93;56.26;100794.13;6120075;23;45577;-60
2023/06/19 07:52:52;;;;;;;;;8.00;5.33;;;;;24.07;56.13;100794.66;6120970;23;45348;-60
2023/06/19 07:55:17;;;;;;;;;21.00;19.33;;;;;24.14;55.37;100791.72;6120805;23;45420;-58
2023/06/19 07:57:43;;;;;;;;;24.00;24.00;;;;;24.13;55.38;100788.09;6119050;23;45292;-55
2023/06/19 08:00:12;;;;;;;;;19.67;18.67;;;;;24.14;55.81;100797.16;6120028;23;46454;-58
2023/06/19 08:02:38;;;;;;;;;18.33;15.67;;;;;24.13;55.25;100785.38;6120682;23;45439;-57
2023/06/19 08:05:04;;;;;;;;;18.33;17.00;;;;;23.91;55.15;100730.53;6120995;23;45396;-58
2023/06/19 08:07:29;;;;;;;;;18.67;16.33;;;;;24.32;54.81;100785.72;6119152;23;45266;-61
2023/06/19 08:09:54;;;;;;;;;19.67;15.00;;;;;24.41;54.51;100787.28;6119623;23;45433;-61
2023/06/19 08:12:20;;;;;;;;;17.33;15.00;;;;;24.45;54.33;100787.16;6122252;23;45345;-60
2023/06/19 08:14:45;;;;;;;;;22.00;21.67;;;;;24.45;54.61;100795.34;6120887;23;45414;-60
2023/06/19 08:17:11;;;;;;;;;20.33;17.00;;;;;24.40;54.46;100789.13;6120015;23;45367;-60
2023/06/19 08:19:38;;;;;;;;;19.00;16.00;;;;;24.38;53.99;100801.03;6119299;23;46095;-61
2023/06/19 08:22:04;;;;;;;;;20.67;19.33;;;;;24.37;53.68;100791.94;6119655;23;45236;-61
2023/06/19 08:24:29;;;;;;;;;21.00;15.67;;;;;24.34;53.34;100780.22;6119281;23;45316;-61
2023/06/19 08:26:55;;;;;;;;;21.00;18.00;;;;;24.46;53.83;100796.22;6120762;23;45382;-61
2023/06/19 08:29:20;;;;;;;;;18.00;17.00;;;;;24.46;53.35;100790.75;6119345;23;46213;-60
2023/06/19 08:31:46;;;;;;;;;15.67;15.67;;;;;24.50;53.28;100794.28;6119222;23;45291;-60
2023/06/19 08:34:11;;;;;;;;;17.67;15.67;;;;;24.47;53.17;100789.84;6119460;23;45738;-61
2023/06/19 08:36:36;;;;;;;;;21.00;17.67;;;;;24.49;52.78;100790.66;6120646;23;45322;-61
2023/06/19 08:39:02;;;;;;;;;16.67;15.67;;;;;24.45;52.79;100772.56;6118436;23;45871;-60
2023/06/19 08:41:28;;;;;;;;;18.00;15.00;;;;;24.55;52.12;100763.22;6120330;23;45575;-62
2023/06/19 08:43:54;;;;;;;;;18.00;15.33;;;;;24.64;51.73;100784.75;6120232;23;45383;-61
2023/06/19 08:46:19;;;;;;;;;16.00;13.00;;;;;24.64;50.82;100784.75;6119731;23;45217;-61
2023/06/19 08:48:45;;;;;;;;;16.00;13.67;;;;;24.66;50.67;100795.63;6119111;23;45532;-60
2023/06/19 08:51:12;;;;;;;;;16.00;13.00;;;;;24.72;51.23;100792.72;6118826;23;45460;-61
2023/06/19 08:53:46;;;;;;;;;21.33;17.00;;;;;24.71;51.03;100779.09;6120590;23;45257;-61
2023/06/19 08:56:11;;;;;;;;;18.00;16.67;;;;;24.74;51.53;100787.22;6117059;23;45423;-62
2023/06/19 08:58:37;;;;;;;;;16.00;12.67;;;;;24.77;51.67;100796.19;6119001;23;45521;-61
2023/06/19 09:01:02;;;;;;;;;18.67;15.00;;;;;24.87;51.51;100794.06;6120671;23;45356;-60
2023/06/19 09:03:28;;;;;;;;;12.33;12.33;;;;;24.97;50.56;100790.09;6120444;23;45376;-62
2023/06/19 09:05:53;;;;;;;;;14.00;14.00;;;;;24.99;51.18;100771.78;6117921;23;45205;-60
2023/06/19 09:08:20;;;;;;;;;13.00;13.00;;;;;25.18;50.73;100783.00;6118852;23;45901;-61
2023/06/19 09:11:02;;;;;;;;;15.00;11.33;;;;;25.27;50.25;100764.53;6118027;23;45322;-60
2023/06/19 09:13:29;;;;;;;;;15.67;13.33;;;;;25.47;49.70;100777.50;6130170;23;45120;-60
2023/06/19 09:16:08;;;;;;;;;10.00;10.00;;;;;25.46;49.64;100765.69;6131431;23;45056;-60
2023/06/19 09:18:45;;;;;;;;;10.00;10.00;;;;;25.49;49.25;100771.06;6128185;23;45697;-61
2023/06/19 09:21:19;;;;;;;;;11.33;9.00;;;;;25.54;49.08;100773.59;6127045;23;45040;-62
2023/06/19 09:23:46;;;;;;;;;12.33;12.00;;;;;25.59;49.06;100781.66;6117964;23;45451;-60
2023/06/19 09:26:14;;;;;;;;;15.67;13.67;;;;;25.65;48.99;100765.91;6119129;23;45288;-60
2023/06/19 09:28:44;;;;;;;;;15.33;12.67;;;;;25.63;48.90;100759.59;6118497;23;46081;-60
2023/06/19 09:31:10;;;;;;;;;9.33;8.67;;;;;25.71;48.71;100757.47;6118775;23;45258;-68
2023/06/19 09:33:36;;;;;;;;;11.67;10.67;;;;;25.83;48.07;100764.34;6121390;23;45359;-67
2023/06/19 09:36:04;;;;;;;;;8.33;7.00;;;;;25.99;47.49;100766.56;6120250;23;45395;-67
2023/06/19 09:38:36;;;;;;;;;12.00;11.00;;;;;26.22;47.09;100763.84;6119653;23;45331;-68
2023/06/19 09:41:03;;;;;;;;;9.00;9.00;;;;;26.34;46.59;100767.06;6121528;23;45424;-66
2023/06/19 09:43:37;;;;;;;;;9.00;9.00;;;;;26.34;46.48;100770.69;6122672;23;45416;-66
2023/06/19 09:46:04;;;;;;;;;8.67;7.33;;;;;26.37;46.22;100758.72;6122270;23;45189;-67
2023/06/19 09:48:32;;;;;;;;;6.33;6.00;;;;;26.37;46.27;100772.41;6120258;23;46248;-68
2023/06/19 09:51:12;;;;;;;;;10.00;10.00;;;;;26.25;46.56;100763.72;6119712;23;45693;-67
2023/06/19 09:53:38;;;;;;;;;8.33;7.33;;;;;26.23;46.78;100756.50;6122293;23;45419;-67
2023/06/19 09:56:03;;;;;;;;;9.00;7.67;;;;;26.20;46.03;100729.22;6122871;23;45573;-74
2023/06/19 09:58:30;;;;;;;;;10.67;9.67;;;;;26.40;45.98;100753.09;6123632;23;45475;-76
2023/06/19 10:00:56;;;;;;;;;9.67;8.00;;;;;26.52;44.40;100740.78;6123202;23;45440;-75
2023/06/19 10:03:30;;;;;;;;;8.33;7.00;;;;;26.64;44.42;100749.41;6123386;23;45353;-75
2023/06/19 10:06:01;;;;;;;;;5.33;4.67;;;;;26.60;44.34;100713.97;6127488;23;45482;-73
2023/06/19 10:08:52;;;;;;;;;6.00;6.00;;;;;26.96;44.41;100751.78;6123666;23;45386;-72
2023/06/19 10:11:18;;;;;;;;;10.67;9.33;;;;;27.07;43.58;100751.34;6123881;23;45291;-76
2023/06/19 10:13:43;;;;;;;;;8.67;8.67;;;;;27.13;43.87;100753.84;6138383;23;44835;-73
2023/06/19 10:16:20;;;;;;;;;10.67;10.67;;;;;27.24;43.91;100748.78;6138622;23;44862;-74
2023/06/19 10:18:47;;;;;;;;;9.00;8.33;;;;;27.23;43.12;100744.25;6130657;23;47522;-74
2023/06/19 10:21:17;;;;;;;;;9.00;7.00;;;;;27.21;43.18;100744.31;6122243;23;45320;-74
2023/06/19 10:23:42;;;;;;;;;11.00;9.33;;;;;27.25;42.74;100747.81;6121713;23;45379;-74
2023/06/19 10:26:08;;;;;;;;;7.00;7.00;;;;;27.09;42.29;100739.38;6122409;23;45513;-75
2023/06/19 10:28:34;;;;;;;;;9.00;8.00;;;;;27.18;42.82;100740.81;6129956;23;45452;-75
2023/06/19 10:31:02;;;;;;;;;11.33;6.67;;;;;26.85;42.46;100681.84;6122268;23;45491;-74
2023/06/19 10:33:32;;;;;;;;;12.67;11.67;;;;;27.23;42.34;100735.13;6121484;23;45337;-74
2023/06/19 10:35:59;;;;;;;;;11.00;8.00;;;;;27.24;42.70;100715.88;6119260;23;45246;-73
2023/06/19 10:38:25;;;;;;;;;16.33;10.67;;;;;27.49;42.45;100726.69;6122036;23;46294;-74
2023/06/19 10:40:51;;;;;;;;;16.67;10.00;;;;;27.65;41.73;100720.50;6121925;23;45451;-75
2023/06/19 10:43:25;;;;;;;;;8.67;7.33;;;;;27.72;41.62;100727.50;6133211;23;45075;-75
2023/06/19 10:45:54;;;;;;;;;8.00;8.00;;;;;27.76;40.73;100720.91;6119898;23;45843;-74
2023/06/19 10:48:22;;;;;;;;;7.33;7.33;;;;;27.79;40.42;100723.50;6119480;23;46182;-74
2023/06/19 10:50:49;;;;;;;;;4.00;4.00;;;;;27.80;39.96;100733.53;6120987;23;45226;-75
2023/06/19 10:53:29;;;;;;;;;9.67;8.33;;;;;27.74;40.38;100720.97;6118896;23;45309;-73
2023/06/19 10:55:59;;;;;;;;;8.33;7.67;;;;;27.71;40.71;100728.44;6120980;23;45377;-72
2023/06/19 10:58:25;;;;;;;;;9.33;8.33;;;;;27.71;41.12;100732.06;6124412;23;45379;-74
2023/06/19 11:00:50;;;;;;;;;9.67;9.67;;;;;27.75;41.60;100725.50;6118223;23;45370;-73
2023/06/19 11:03:16;;;;;;;;;10.67;8.33;;;;;27.73;41.55;100713.69;6120423;23;45430;-71
2023/06/19 11:05:44;;;;;;;;;6.67;6.67;;;;;27.69;41.10;100717.53;6120649;23;45296;-75
2023/06/19 11:08:10;;;;;;;;;13.67;11.33;;;;;27.77;41.12;100709.84;6118279;23;46583;-72
2023/06/19 11:10:35;;;;;;;;;8.00;8.00;;;;;27.81;41.45;100698.72;6120025;23;45458;-72
2023/06/19 11:13:01;;;;;;;;;13.67;12.33;;;;;27.95;41.24;100715.50;6128307;23;45317;-73
2023/06/19 11:15:31;;;;;;;;;11.00;8.00;;;;;27.97;40.77;100701.66;6124934;23;45229;-73